sensor_id;sensor_type;location;lat;lon;timestamp;P1;durP1;ratioP1;P2;durP2;ratioP2
13801;SDS011;6972;51.518;6.918;2023-03-24T00:00:22;3.78;;;2.10;;
13801;SDS011;6972;51.518;6.918;2023-03-24T00:02:48;5.65;;;2.60;;
13801;SDS011;6972;51.518;6.918;2023-03-24T00:05:17;3.90;;;2.13;;
13801;SDS011;6972;51.518;6.918;2023-03-24T00:07:44;3.53;;;2.22;;
13801;SDS011;6972;51.518;6.918;2023-03-24T00:10:12;4.18;;;2.38;;
13801;SDS011;6972;51.518;6.918;2023-03-24T00:12:42;5.53;;;2.30;;
13801;SDS011;6972;51.518;6.918;2023-03-24T00:15:10;6.25;;;1.95;;
13801;SDS011;6972;51.518;6.918;2023-03-24T00:17:37;5.55;;;2.33;;
13801;SDS011;6972;51.518;6.918;2023-03-24T00:20:08;6.28;;;2.30;;
13801;SDS011;6972;51.518;6.918;2023-03-24T00:22:42;3.78;;;2.00;;
13801;SDS011;6972;51.518;6.918;2023-03-24T00:25:14;2.22;;;1.75;;
13801;SDS011;6972;51.518;6.918;2023-03-24T00:27:44;3.97;;;2.20;;
13801;SDS011;6972;51.518;6.918;2023-03-24T00:30:13;6.75;;;2.25;;
13801;SDS011;6972;51.518;6.918;2023-03-24T00:32:39;7.88;;;2.25;;
13801;SDS011;6972;51.518;6.918;2023-03-24T00:35:05;3.97;;;2.10;;
13801;SDS011;6972;51.518;6.918;2023-03-24T00:37:33;3.97;;;1.80;;
13801;SDS011;6972;51.518;6.918;2023-03-24T00:40:05;3.88;;;1.88;;
13801;SDS011;6972;51.518;6.918;2023-03-24T00:42:36;2.95;;;1.95;;
13801;SDS011;6972;51.518;6.918;2023-03-24T00:45:07;6.07;;;2.00;;
13801;SDS011;6972;51.518;6.918;2023-03-24T00:47:33;3.35;;;2.17;;
13801;SDS011;6972;51.518;6.918;2023-03-24T00:50:06;3.85;;;1.98;;
13801;SDS011;6972;51.518;6.918;2023-03-24T00:52:33;3.85;;;1.83;;
13801;SDS011;6972;51.518;6.918;2023-03-24T00:55:00;4.28;;;2.05;;
13801;SDS011;6972;51.518;6.918;2023-03-24T00:57:28;6.55;;;2.13;;
13801;SDS011;6972;51.518;6.918;2023-03-24T00:59:59;3.90;;;1.92;;
13801;SDS011;6972;51.518;6.918;2023-03-24T01:02:37;4.13;;;2.08;;
13801;SDS011;6972;51.518;6.918;2023-03-24T01:05:03;2.55;;;1.88;;
13801;SDS011;6972;51.518;6.918;2023-03-24T01:07:30;3.58;;;2.22;;
13801;SDS011;6972;51.518;6.918;2023-03-24T01:09:57;3.22;;;2.00;;
13801;SDS011;6972;51.518;6.918;2023-03-24T01:12:34;3.40;;;1.95;;
13801;SDS011;6972;51.518;6.918;2023-03-24T01:15:21;2.20;;;1.52;;
13801;SDS011;6972;51.518;6.918;2023-03-24T01:17:49;5.78;;;1.95;;
13801;SDS011;6972;51.518;6.918;2023-03-24T01:20:17;4.10;;;1.80;;
13801;SDS011;6972;51.518;6.918;2023-03-24T01:22:43;4.10;;;2.00;;
13801;SDS011;6972;51.518;6.918;2023-03-24T01:25:11;3.85;;;1.90;;
13801;SDS011;6972;51.518;6.918;2023-03-24T01:27:40;5.90;;;1.80;;
13801;SDS011;6972;51.518;6.918;2023-03-24T01:30:06;3.65;;;2.20;;
13801;SDS011;6972;51.518;6.918;2023-03-24T01:32:33;3.25;;;2.00;;
13801;SDS011;6972;51.518;6.918;2023-03-24T01:34:59;4.85;;;2.08;;
13801;SDS011;6972;51.518;6.918;2023-03-24T01:37:25;7.93;;;2.00;;
13801;SDS011;6972;51.518;6.918;2023-03-24T01:39:51;3.72;;;2.03;;
13801;SDS011;6972;51.518;6.918;2023-03-24T01:42:19;4.53;;;2.03;;
13801;SDS011;6972;51.518;6.918;2023-03-24T01:44:50;2.42;;;1.85;;
13801;SDS011;6972;51.518;6.918;2023-03-24T01:47:18;3.05;;;1.95;;
13801;SDS011;6972;51.518;6.918;2023-03-24T01:49:51;4.50;;;2.13;;
13801;SDS011;6972;51.518;6.918;2023-03-24T01:52:37;4.20;;;1.75;;
13801;SDS011;6972;51.518;6.918;2023-03-24T01:55:07;3.72;;;2.20;;
13801;SDS011;6972;51.518;6.918;2023-03-24T01:57:44;5.45;;;2.58;;
13801;SDS011;6972;51.518;6.918;2023-03-24T02:00:14;4.55;;;2.40;;
13801;SDS011;6972;51.518;6.918;2023-03-24T02:02:46;3.88;;;2.03;;
13801;SDS011;6972;51.518;6.918;2023-03-24T02:05:19;3.13;;;2.20;;
13801;SDS011;6972;51.518;6.918;2023-03-24T02:07:52;2.92;;;2.20;;
13801;SDS011;6972;51.518;6.918;2023-03-24T02:10:39;4.35;;;2.50;;
13801;SDS011;6972;51.518;6.918;2023-03-24T02:13:06;4.15;;;2.30;;
13801;SDS011;6972;51.518;6.918;2023-03-24T02:15:36;9.25;;;2.30;;
13801;SDS011;6972;51.518;6.918;2023-03-24T02:18:14;2.65;;;2.10;;
13801;SDS011;6972;51.518;6.918;2023-03-24T02:31:52;3.50;;;2.63;;
13801;SDS011;6972;51.518;6.918;2023-03-24T02:34:41;2.90;;;2.38;;
13801;SDS011;6972;51.518;6.918;2023-03-24T02:37:31;5.40;;;2.60;;
13801;SDS011;6972;51.518;6.918;2023-03-24T02:59:10;4.13;;;2.88;;
13801;SDS011;6972;51.518;6.918;2023-03-24T03:02:23;7.05;;;3.10;;
13801;SDS011;6972;51.518;6.918;2023-03-24T03:04:53;4.85;;;2.63;;
13801;SDS011;6972;51.518;6.918;2023-03-24T03:07:24;5.35;;;2.88;;
13801;SDS011;6972;51.518;6.918;2023-03-24T03:09:59;3.65;;;3.08;;
13801;SDS011;6972;51.518;6.918;2023-03-24T03:12:45;6.63;;;2.80;;
13801;SDS011;6972;51.518;6.918;2023-03-24T03:15:13;4.70;;;2.60;;
13801;SDS011;6972;51.518;6.918;2023-03-24T03:17:50;5.85;;;3.10;;
13801;SDS011;6972;51.518;6.918;2023-03-24T03:20:19;4.85;;;2.78;;
13801;SDS011;6972;51.518;6.918;2023-03-24T03:22:49;5.10;;;2.97;;
13801;SDS011;6972;51.518;6.918;2023-03-24T03:25:21;3.92;;;2.78;;
13801;SDS011;6972;51.518;6.918;2023-03-24T03:27:52;3.70;;;2.65;;
13801;SDS011;6972;51.518;6.918;2023-03-24T03:30:25;4.85;;;2.88;;
13801;SDS011;6972;51.518;6.918;2023-03-24T03:32:57;8.10;;;2.88;;
13801;SDS011;6972;51.518;6.918;2023-03-24T03:35:28;5.90;;;3.00;;
13801;SDS011;6972;51.518;6.918;2023-03-24T03:38:16;3.50;;;2.60;;
13801;SDS011;6972;51.518;6.918;2023-03-24T03:40:58;3.65;;;2.50;;
13801;SDS011;6972;51.518;6.918;2023-03-24T03:43:26;4.60;;;2.55;;
13801;SDS011;6972;51.518;6.918;2023-03-24T03:45:54;9.05;;;3.17;;
13801;SDS011;6972;51.518;6.918;2023-03-24T03:48:20;5.43;;;2.60;;
13801;SDS011;6972;51.518;6.918;2023-03-24T03:50:50;4.18;;;2.50;;
13801;SDS011;6972;51.518;6.918;2023-03-24T03:53:17;4.57;;;2.67;;
13801;SDS011;6972;51.518;6.918;2023-03-24T03:55:46;4.53;;;2.30;;
13801;SDS011;6972;51.518;6.918;2023-03-24T03:58:12;4.15;;;2.40;;
13801;SDS011;6972;51.518;6.918;2023-03-24T04:00:38;5.10;;;2.78;;
13801;SDS011;6972;51.518;6.918;2023-03-24T04:06:00;3.95;;;2.47;;
13801;SDS011;6972;51.518;6.918;2023-03-24T04:08:47;4.13;;;2.55;;
13801;SDS011;6972;51.518;6.918;2023-03-24T04:24:45;3.65;;;2.25;;
13801;SDS011;6972;51.518;6.918;2023-03-24T04:27:24;3.20;;;2.20;;
13801;SDS011;6972;51.518;6.918;2023-03-24T04:32:46;5.05;;;2.35;;
13801;SDS011;6972;51.518;6.918;2023-03-24T04:48:44;2.65;;;1.85;;
13801;SDS011;6972;51.518;6.918;2023-03-24T04:51:12;2.45;;;1.90;;
13801;SDS011;6972;51.518;6.918;2023-03-24T04:53:39;4.75;;;2.10;;
13801;SDS011;6972;51.518;6.918;2023-03-24T04:58:40;4.30;;;2.00;;
13801;SDS011;6972;51.518;6.918;2023-03-24T05:01:06;2.95;;;1.80;;
13801;SDS011;6972;51.518;6.918;2023-03-24T05:03:33;3.50;;;1.80;;
13801;SDS011;6972;51.518;6.918;2023-03-24T05:06:02;3.45;;;1.98;;
13801;SDS011;6972;51.518;6.918;2023-03-24T05:08:29;6.05;;;1.98;;
13801;SDS011;6972;51.518;6.918;2023-03-24T05:10:55;3.35;;;1.88;;
13801;SDS011;6972;51.518;6.918;2023-03-24T05:13:21;3.17;;;1.77;;
13801;SDS011;6972;51.518;6.918;2023-03-24T05:15:47;4.32;;;1.70;;
13801;SDS011;6972;51.518;6.918;2023-03-24T05:18:13;3.33;;;1.83;;
13801;SDS011;6972;51.518;6.918;2023-03-24T05:25:50;4.10;;;1.55;;
13801;SDS011;6972;51.518;6.918;2023-03-24T05:28:19;4.40;;;1.83;;
13801;SDS011;6972;51.518;6.918;2023-03-24T07:17:19;9.73;;;2.28;;
13801;SDS011;6972;51.518;6.918;2023-03-24T07:24:46;9.55;;;2.17;;
13801;SDS011;6972;51.518;6.918;2023-03-24T07:34:59;14.52;;;2.80;;
13801;SDS011;6972;51.518;6.918;2023-03-24T07:37:25;10.38;;;2.50;;
13801;SDS011;6972;51.518;6.918;2023-03-24T07:45:48;8.88;;;1.90;;
13801;SDS011;6972;51.518;6.918;2023-03-24T07:48:15;8.88;;;2.28;;
13801;SDS011;6972;51.518;6.918;2023-03-24T08:01:08;12.93;;;2.50;;
13801;SDS011;6972;51.518;6.918;2023-03-24T08:03:37;10.52;;;2.35;;
13801;SDS011;6972;51.518;6.918;2023-03-24T08:06:07;9.52;;;2.50;;
13801;SDS011;6972;51.518;6.918;2023-03-24T08:08:36;14.80;;;2.85;;
13801;SDS011;6972;51.518;6.918;2023-03-24T08:11:03;12.98;;;2.42;;
13801;SDS011;6972;51.518;6.918;2023-03-24T08:21:15;9.85;;;2.10;;
13801;SDS011;6972;51.518;6.918;2023-03-24T08:23:41;10.20;;;2.50;;
13801;SDS011;6972;51.518;6.918;2023-03-24T08:26:06;14.43;;;2.75;;
13801;SDS011;6972;51.518;6.918;2023-03-24T08:28:35;14.57;;;2.33;;
13801;SDS011;6972;51.518;6.918;2023-03-24T08:31:01;12.57;;;2.80;;
13801;SDS011;6972;51.518;6.918;2023-03-24T08:33:27;16.20;;;2.55;;
13801;SDS011;6972;51.518;6.918;2023-03-24T08:35:53;11.50;;;2.67;;
13801;SDS011;6972;51.518;6.918;2023-03-24T08:38:24;9.82;;;2.22;;
13801;SDS011;6972;51.518;6.918;2023-03-24T08:46:11;10.20;;;2.72;;
13801;SDS011;6972;51.518;6.918;2023-03-24T08:48:36;11.05;;;2.83;;
13801;SDS011;6972;51.518;6.918;2023-03-24T08:51:08;9.88;;;2.92;;
13801;SDS011;6972;51.518;6.918;2023-03-24T08:53:36;10.60;;;2.60;;
13801;SDS011;6972;51.518;6.918;2023-03-24T08:56:02;9.98;;;2.33;;
13801;SDS011;6972;51.518;6.918;2023-03-24T08:58:28;9.15;;;2.47;;
13801;SDS011;6972;51.518;6.918;2023-03-24T09:00:54;10.25;;;3.40;;
13801;SDS011;6972;51.518;6.918;2023-03-24T09:03:19;10.20;;;2.47;;
13801;SDS011;6972;51.518;6.918;2023-03-24T09:05:46;11.98;;;2.65;;
13801;SDS011;6972;51.518;6.918;2023-03-24T09:08:12;12.23;;;2.85;;
13801;SDS011;6972;51.518;6.918;2023-03-24T09:10:40;11.82;;;2.55;;
13801;SDS011;6972;51.518;6.918;2023-03-24T09:13:07;10.05;;;2.42;;
13801;SDS011;6972;51.518;6.918;2023-03-24T09:15:32;13.05;;;3.10;;
13801;SDS011;6972;51.518;6.918;2023-03-24T09:18:04;8.70;;;2.50;;
13801;SDS011;6972;51.518;6.918;2023-03-24T09:20:30;21.48;;;3.10;;
13801;SDS011;6972;51.518;6.918;2023-03-24T09:22:56;11.48;;;3.42;;
13801;SDS011;6972;51.518;6.918;2023-03-24T09:25:26;11.50;;;2.70;;
13801;SDS011;6972;51.518;6.918;2023-03-24T09:27:53;10.25;;;3.10;;
13801;SDS011;6972;51.518;6.918;2023-03-24T09:30:21;16.20;;;3.08;;
13801;SDS011;6972;51.518;6.918;2023-03-24T09:32:46;10.60;;;2.95;;
13801;SDS011;6972;51.518;6.918;2023-03-24T09:35:14;15.25;;;3.65;;
13801;SDS011;6972;51.518;6.918;2023-03-24T09:37:40;16.85;;;3.35;;
13801;SDS011;6972;51.518;6.918;2023-03-24T09:40:09;11.43;;;3.00;;
13801;SDS011;6972;51.518;6.918;2023-03-24T09:42:43;13.02;;;2.75;;
13801;SDS011;6972;51.518;6.918;2023-03-24T09:45:11;13.18;;;2.78;;
13801;SDS011;6972;51.518;6.918;2023-03-24T09:47:57;8.48;;;2.28;;
13801;SDS011;6972;51.518;6.918;2023-03-24T09:51:08;14.68;;;2.50;;
13801;SDS011;6972;51.518;6.918;2023-03-24T09:55:43;6.13;;;2.25;;
13801;SDS011;6972;51.518;6.918;2023-03-24T09:58:19;10.18;;;2.67;;
13801;SDS011;6972;51.518;6.918;2023-03-24T10:00:45;12.00;;;2.67;;
13801;SDS011;6972;51.518;6.918;2023-03-24T10:03:21;11.18;;;2.75;;
13801;SDS011;6972;51.518;6.918;2023-03-24T10:13:52;12.65;;;2.55;;
13801;SDS011;6972;51.518;6.918;2023-03-24T10:22:24;14.00;;;2.58;;
13801;SDS011;6972;51.518;6.918;2023-03-24T10:25:04;9.80;;;2.70;;
13801;SDS011;6972;51.518;6.918;2023-03-24T10:30:50;14.32;;;2.58;;
13801;SDS011;6972;51.518;6.918;2023-03-24T10:33:19;7.15;;;2.15;;
13801;SDS011;6972;51.518;6.918;2023-03-24T10:38:16;9.52;;;2.15;;
13801;SDS011;6972;51.518;6.918;2023-03-24T10:40:44;10.00;;;2.67;;
13801;SDS011;6972;51.518;6.918;2023-03-24T10:43:11;9.52;;;2.28;;
13801;SDS011;6972;51.518;6.918;2023-03-24T10:45:38;12.68;;;2.00;;
13801;SDS011;6972;51.518;6.918;2023-03-24T10:48:12;9.45;;;2.13;;
13801;SDS011;6972;51.518;6.918;2023-03-24T10:50:42;10.05;;;2.28;;
13801;SDS011;6972;51.518;6.918;2023-03-24T10:53:18;8.65;;;2.28;;
13801;SDS011;6972;51.518;6.918;2023-03-24T10:55:45;6.78;;;2.10;;
13801;SDS011;6972;51.518;6.918;2023-03-24T10:58:44;9.98;;;2.10;;
13801;SDS011;6972;51.518;6.918;2023-03-24T11:01:47;8.75;;;2.38;;
13801;SDS011;6972;51.518;6.918;2023-03-24T11:04:13;7.65;;;1.77;;
13801;SDS011;6972;51.518;6.918;2023-03-24T11:07:20;10.30;;;1.90;;
13801;SDS011;6972;51.518;6.918;2023-03-24T11:09:46;8.15;;;1.90;;
13801;SDS011;6972;51.518;6.918;2023-03-24T11:13:01;9.10;;;2.25;;
13801;SDS011;6972;51.518;6.918;2023-03-24T11:21:31;10.77;;;2.30;;
13801;SDS011;6972;51.518;6.918;2023-03-24T11:24:00;8.15;;;2.10;;
13801;SDS011;6972;51.518;6.918;2023-03-24T11:26:29;8.90;;;2.25;;
13801;SDS011;6972;51.518;6.918;2023-03-24T11:28:59;9.45;;;2.53;;
13801;SDS011;6972;51.518;6.918;2023-03-24T11:31:36;7.97;;;1.77;;
13801;SDS011;6972;51.518;6.918;2023-03-24T11:39:16;9.77;;;2.08;;
13801;SDS011;6972;51.518;6.918;2023-03-24T11:42:25;7.72;;;2.10;;
13801;SDS011;6972;51.518;6.918;2023-03-24T11:44:45;14.23;;;2.28;;
13801;SDS011;6972;51.518;6.918;2023-03-24T11:47:32;6.53;;;2.20;;
13801;SDS011;6972;51.518;6.918;2023-03-24T12:01:00;9.98;;;2.45;;
13801;SDS011;6972;51.518;6.918;2023-03-24T12:09:01;7.60;;;2.13;;
13801;SDS011;6972;51.518;6.918;2023-03-24T12:17:11;8.60;;;2.03;;
13801;SDS011;6972;51.518;6.918;2023-03-24T12:39:11;8.85;;;2.20;;
13801;SDS011;6972;51.518;6.918;2023-03-24T12:55:39;10.93;;;2.55;;
13801;SDS011;6972;51.518;6.918;2023-03-24T13:04:01;7.93;;;2.40;;
13801;SDS011;6972;51.518;6.918;2023-03-24T13:12:26;5.22;;;1.60;;
13801;SDS011;6972;51.518;6.918;2023-03-24T13:17:31;8.02;;;2.38;;
13801;SDS011;6972;51.518;6.918;2023-03-24T13:20:25;9.88;;;2.40;;
13801;SDS011;6972;51.518;6.918;2023-03-24T13:22:53;9.73;;;2.38;;
13801;SDS011;6972;51.518;6.918;2023-03-24T13:27:52;11.15;;;2.53;;
13801;SDS011;6972;51.518;6.918;2023-03-24T13:30:31;9.13;;;2.30;;
13801;SDS011;6972;51.518;6.918;2023-03-24T13:33:02;8.05;;;2.17;;
13801;SDS011;6972;51.518;6.918;2023-03-24T13:36:08;10.05;;;2.30;;
13801;SDS011;6972;51.518;6.918;2023-03-24T13:39:11;9.55;;;2.63;;
13801;SDS011;6972;51.518;6.918;2023-03-24T13:41:50;8.05;;;2.40;;
13801;SDS011;6972;51.518;6.918;2023-03-24T13:48:01;7.82;;;2.28;;
13801;SDS011;6972;51.518;6.918;2023-03-24T13:50:30;12.85;;;2.60;;
13801;SDS011;6972;51.518;6.918;2023-03-24T13:52:59;7.95;;;2.45;;
13801;SDS011;6972;51.518;6.918;2023-03-24T13:55:37;9.07;;;2.47;;
13801;SDS011;6972;51.518;6.918;2023-03-24T13:58:17;10.23;;;2.50;;
13801;SDS011;6972;51.518;6.918;2023-03-24T14:03:34;9.85;;;2.50;;
13801;SDS011;6972;51.518;6.918;2023-03-24T14:06:03;8.65;;;2.47;;
13801;SDS011;6972;51.518;6.918;2023-03-24T14:14:04;5.15;;;1.70;;
13801;SDS011;6972;51.518;6.918;2023-03-24T14:16:54;2.75;;;1.20;;
13801;SDS011;6972;51.518;6.918;2023-03-24T14:22:53;3.40;;;1.50;;
13801;SDS011;6972;51.518;6.918;2023-03-24T14:28:59;5.00;;;1.75;;
13801;SDS011;6972;51.518;6.918;2023-03-24T14:31:58;6.45;;;1.70;;
13801;SDS011;6972;51.518;6.918;2023-03-24T14:34:59;4.82;;;1.50;;
13801;SDS011;6972;51.518;6.918;2023-03-24T14:37:29;3.97;;;1.60;;
13801;SDS011;6972;51.518;6.918;2023-03-24T14:40:22;9.30;;;1.83;;
13801;SDS011;6972;51.518;6.918;2023-03-24T14:43:04;4.65;;;1.73;;
13801;SDS011;6972;51.518;6.918;2023-03-24T14:53:20;6.95;;;1.98;;
13801;SDS011;6972;51.518;6.918;2023-03-24T14:55:47;7.57;;;2.00;;
13801;SDS011;6972;51.518;6.918;2023-03-24T15:00:47;4.88;;;1.70;;
13801;SDS011;6972;51.518;6.918;2023-03-24T15:05:51;5.13;;;1.92;;
13801;SDS011;6972;51.518;6.918;2023-03-24T15:08:20;4.35;;;1.73;;
13801;SDS011;6972;51.518;6.918;2023-03-24T15:11:03;7.88;;;2.13;;
13801;SDS011;6972;51.518;6.918;2023-03-24T15:15:58;6.05;;;1.95;;
13801;SDS011;6972;51.518;6.918;2023-03-24T15:18:25;5.28;;;1.83;;
13801;SDS011;6972;51.518;6.918;2023-03-24T15:20:51;5.55;;;2.17;;
13801;SDS011;6972;51.518;6.918;2023-03-24T15:23:22;6.60;;;2.75;;
13801;SDS011;6972;51.518;6.918;2023-03-24T15:25:58;3.10;;;1.63;;
13801;SDS011;6972;51.518;6.918;2023-03-24T15:28:26;5.43;;;1.50;;
13801;SDS011;6972;51.518;6.918;2023-03-24T15:30:54;4.60;;;1.95;;
13801;SDS011;6972;51.518;6.918;2023-03-24T15:33:23;4.97;;;1.88;;
13801;SDS011;6972;51.518;6.918;2023-03-24T15:35:59;10.30;;;1.92;;
13801;SDS011;6972;51.518;6.918;2023-03-24T15:38:30;7.68;;;2.05;;
13801;SDS011;6972;51.518;6.918;2023-03-24T15:43:23;9.57;;;1.80;;
13801;SDS011;6972;51.518;6.918;2023-03-24T15:45:53;12.23;;;2.47;;
13801;SDS011;6972;51.518;6.918;2023-03-24T15:48:20;6.03;;;2.00;;
13801;SDS011;6972;51.518;6.918;2023-03-24T15:51:05;8.60;;;1.80;;
13801;SDS011;6972;51.518;6.918;2023-03-24T15:56:27;3.70;;;1.75;;
13801;SDS011;6972;51.518;6.918;2023-03-24T16:01:37;6.80;;;2.05;;
13801;SDS011;6972;51.518;6.918;2023-03-24T16:04:15;6.00;;;1.83;;
13801;SDS011;6972;51.518;6.918;2023-03-24T16:06:46;4.00;;;1.88;;
13801;SDS011;6972;51.518;6.918;2023-03-24T16:09:15;6.45;;;2.08;;
13801;SDS011;6972;51.518;6.918;2023-03-24T16:11:46;5.10;;;1.92;;
13801;SDS011;6972;51.518;6.918;2023-03-24T16:14:22;6.30;;;1.90;;
13801;SDS011;6972;51.518;6.918;2023-03-24T16:16:54;6.22;;;1.92;;
13801;SDS011;6972;51.518;6.918;2023-03-24T16:19:26;5.38;;;2.08;;
13801;SDS011;6972;51.518;6.918;2023-03-24T16:21:52;8.05;;;2.20;;
13801;SDS011;6972;51.518;6.918;2023-03-24T16:24:18;8.85;;;2.03;;
13801;SDS011;6972;51.518;6.918;2023-03-24T16:26:44;4.80;;;1.95;;
13801;SDS011;6972;51.518;6.918;2023-03-24T16:29:13;5.68;;;2.17;;
13801;SDS011;6972;51.518;6.918;2023-03-24T16:31:42;6.88;;;2.28;;
13801;SDS011;6972;51.518;6.918;2023-03-24T16:34:16;6.38;;;2.05;;
13801;SDS011;6972;51.518;6.918;2023-03-24T16:36:47;5.28;;;1.98;;
13801;SDS011;6972;51.518;6.918;2023-03-24T16:39:24;4.40;;;1.95;;
13801;SDS011;6972;51.518;6.918;2023-03-24T16:41:52;5.47;;;2.22;;
13801;SDS011;6972;51.518;6.918;2023-03-24T16:44:21;3.30;;;1.60;;
13801;SDS011;6972;51.518;6.918;2023-03-24T16:46:47;6.55;;;2.00;;
13801;SDS011;6972;51.518;6.918;2023-03-24T16:49:16;5.47;;;1.90;;
13801;SDS011;6972;51.518;6.918;2023-03-24T16:51:43;4.85;;;1.40;;
13801;SDS011;6972;51.518;6.918;2023-03-24T16:54:10;4.57;;;1.52;;
13801;SDS011;6972;51.518;6.918;2023-03-24T16:56:36;4.63;;;1.90;;
13801;SDS011;6972;51.518;6.918;2023-03-24T16:59:03;7.05;;;2.15;;
13801;SDS011;6972;51.518;6.918;2023-03-24T17:01:33;3.60;;;1.45;;
13801;SDS011;6972;51.518;6.918;2023-03-24T17:04:09;6.18;;;1.65;;
13801;SDS011;6972;51.518;6.918;2023-03-24T17:06:38;6.03;;;1.55;;
13801;SDS011;6972;51.518;6.918;2023-03-24T17:09:06;3.08;;;1.48;;
13801;SDS011;6972;51.518;6.918;2023-03-24T17:11:40;4.82;;;1.67;;
13801;SDS011;6972;51.518;6.918;2023-03-24T17:14:08;4.50;;;1.80;;
13801;SDS011;6972;51.518;6.918;2023-03-24T17:16:57;5.38;;;1.80;;
13801;SDS011;6972;51.518;6.918;2023-03-24T17:19:23;5.18;;;1.80;;
13801;SDS011;6972;51.518;6.918;2023-03-24T17:22:01;3.17;;;1.80;;
13801;SDS011;6972;51.518;6.918;2023-03-24T17:24:31;7.97;;;1.83;;
13801;SDS011;6972;51.518;6.918;2023-03-24T17:27:02;4.22;;;1.63;;
13801;SDS011;6972;51.518;6.918;2023-03-24T17:29:35;5.05;;;1.83;;
13801;SDS011;6972;51.518;6.918;2023-03-24T17:32:01;2.45;;;1.45;;
13801;SDS011;6972;51.518;6.918;2023-03-24T17:34:29;4.90;;;1.90;;
13801;SDS011;6972;51.518;6.918;2023-03-24T17:36:58;3.00;;;1.83;;
13801;SDS011;6972;51.518;6.918;2023-03-24T17:39:26;7.10;;;1.95;;
13801;SDS011;6972;51.518;6.918;2023-03-24T17:45:25;4.72;;;1.90;;
13801;SDS011;6972;51.518;6.918;2023-03-24T17:47:53;6.43;;;1.85;;
13801;SDS011;6972;51.518;6.918;2023-03-24T17:50:20;4.07;;;1.88;;
13801;SDS011;6972;51.518;6.918;2023-03-24T17:52:46;6.97;;;1.58;;
13801;SDS011;6972;51.518;6.918;2023-03-24T17:55:13;8.10;;;1.65;;
13801;SDS011;6972;51.518;6.918;2023-03-24T17:57:40;5.35;;;2.05;;
13801;SDS011;6972;51.518;6.918;2023-03-24T18:00:06;4.03;;;1.77;;
13801;SDS011;6972;51.518;6.918;2023-03-24T18:02:42;7.30;;;1.75;;
13801;SDS011;6972;51.518;6.918;2023-03-24T18:05:08;7.18;;;2.10;;
13801;SDS011;6972;51.518;6.918;2023-03-24T18:07:35;5.63;;;1.80;;
13801;SDS011;6972;51.518;6.918;2023-03-24T18:10:08;5.05;;;1.90;;
13801;SDS011;6972;51.518;6.918;2023-03-24T18:12:34;4.82;;;2.33;;
13801;SDS011;6972;51.518;6.918;2023-03-24T18:15:02;6.88;;;2.47;;
13801;SDS011;6972;51.518;6.918;2023-03-24T18:17:31;4.22;;;2.10;;
13801;SDS011;6972;51.518;6.918;2023-03-24T18:19:58;7.05;;;1.98;;
13801;SDS011;6972;51.518;6.918;2023-03-24T18:22:35;3.13;;;1.70;;
13801;SDS011;6972;51.518;6.918;2023-03-24T18:25:02;2.47;;;1.40;;
13801;SDS011;6972;51.518;6.918;2023-03-24T18:27:28;5.68;;;1.95;;
13801;SDS011;6972;51.518;6.918;2023-03-24T18:29:55;4.53;;;1.50;;
13801;SDS011;6972;51.518;6.918;2023-03-24T18:32:21;5.03;;;1.50;;
13801;SDS011;6972;51.518;6.918;2023-03-24T18:34:46;3.35;;;1.30;;
13801;SDS011;6972;51.518;6.918;2023-03-24T18:37:12;3.92;;;1.50;;
13801;SDS011;6972;51.518;6.918;2023-03-24T18:39:39;4.53;;;1.58;;
13801;SDS011;6972;51.518;6.918;2023-03-24T18:42:05;5.40;;;1.48;;
13801;SDS011;6972;51.518;6.918;2023-03-24T18:44:31;3.60;;;1.40;;
13801;SDS011;6972;51.518;6.918;2023-03-24T18:46:56;6.15;;;1.70;;
13801;SDS011;6972;51.518;6.918;2023-03-24T18:49:22;4.80;;;1.73;;
13801;SDS011;6972;51.518;6.918;2023-03-24T18:51:49;5.70;;;1.63;;
13801;SDS011;6972;51.518;6.918;2023-03-24T18:54:15;3.70;;;1.50;;
13801;SDS011;6972;51.518;6.918;2023-03-24T18:56:43;6.10;;;1.73;;
13801;SDS011;6972;51.518;6.918;2023-03-24T18:59:09;4.35;;;1.70;;
13801;SDS011;6972;51.518;6.918;2023-03-24T19:01:35;5.55;;;1.55;;
13801;SDS011;6972;51.518;6.918;2023-03-24T19:04:02;5.75;;;1.73;;
13801;SDS011;6972;51.518;6.918;2023-03-24T19:06:28;6.60;;;1.48;;
13801;SDS011;6972;51.518;6.918;2023-03-24T19:08:59;8.57;;;1.80;;
13801;SDS011;6972;51.518;6.918;2023-03-24T19:11:24;4.70;;;1.67;;
13801;SDS011;6972;51.518;6.918;2023-03-24T19:13:50;2.38;;;1.42;;
13801;SDS011;6972;51.518;6.918;2023-03-24T19:16:17;4.93;;;1.50;;
13801;SDS011;6972;51.518;6.918;2023-03-24T19:18:43;3.65;;;1.48;;
13801;SDS011;6972;51.518;6.918;2023-03-24T19:21:12;5.53;;;1.73;;
13801;SDS011;6972;51.518;6.918;2023-03-24T19:23:38;5.32;;;1.55;;
13801;SDS011;6972;51.518;6.918;2023-03-24T19:26:07;5.70;;;1.88;;
13801;SDS011;6972;51.518;6.918;2023-03-24T19:28:41;6.47;;;2.13;;
13801;SDS011;6972;51.518;6.918;2023-03-24T19:31:08;7.00;;;1.90;;
13801;SDS011;6972;51.518;6.918;2023-03-24T19:33:39;5.85;;;2.10;;
13801;SDS011;6972;51.518;6.918;2023-03-24T19:36:08;4.50;;;1.73;;
13801;SDS011;6972;51.518;6.918;2023-03-24T19:38:37;5.70;;;1.70;;
13801;SDS011;6972;51.518;6.918;2023-03-24T19:41:13;3.97;;;1.73;;
13801;SDS011;6972;51.518;6.918;2023-03-24T19:43:39;6.85;;;2.03;;
13801;SDS011;6972;51.518;6.918;2023-03-24T19:46:09;5.03;;;1.92;;
13801;SDS011;6972;51.518;6.918;2023-03-24T19:48:34;5.55;;;2.00;;
13801;SDS011;6972;51.518;6.918;2023-03-24T19:51:10;6.50;;;1.90;;
13801;SDS011;6972;51.518;6.918;2023-03-24T20:08:48;4.20;;;1.70;;
13801;SDS011;6972;51.518;6.918;2023-03-24T20:11:18;6.82;;;2.33;;
13801;SDS011;6972;51.518;6.918;2023-03-24T20:14:21;5.35;;;1.80;;
13801;SDS011;6972;51.518;6.918;2023-03-24T20:16:47;7.57;;;1.80;;
13801;SDS011;6972;51.518;6.918;2023-03-24T20:19:14;7.43;;;2.05;;
13801;SDS011;6972;51.518;6.918;2023-03-24T20:21:43;7.43;;;1.90;;
13801;SDS011;6972;51.518;6.918;2023-03-24T20:24:11;7.97;;;1.73;;
13801;SDS011;6972;51.518;6.918;2023-03-24T20:26:38;4.32;;;1.70;;
13801;SDS011;6972;51.518;6.918;2023-03-24T20:29:05;5.63;;;1.88;;
13801;SDS011;6972;51.518;6.918;2023-03-24T20:31:32;7.63;;;1.73;;
13801;SDS011;6972;51.518;6.918;2023-03-24T20:34:00;7.13;;;1.80;;
13801;SDS011;6972;51.518;6.918;2023-03-24T20:36:26;5.78;;;1.80;;
13801;SDS011;6972;51.518;6.918;2023-03-24T20:38:55;5.25;;;1.80;;
13801;SDS011;6972;51.518;6.918;2023-03-24T20:41:23;5.88;;;1.92;;
13801;SDS011;6972;51.518;6.918;2023-03-24T20:43:49;4.13;;;1.55;;
13801;SDS011;6972;51.518;6.918;2023-03-24T20:46:15;4.78;;;1.55;;
13801;SDS011;6972;51.518;6.918;2023-03-24T20:48:44;4.22;;;1.70;;
13801;SDS011;6972;51.518;6.918;2023-03-24T20:51:10;3.35;;;1.88;;
13801;SDS011;6972;51.518;6.918;2023-03-24T20:58:51;4.97;;;1.98;;
13801;SDS011;6972;51.518;6.918;2023-03-24T21:04:08;4.25;;;1.48;;
13801;SDS011;6972;51.518;6.918;2023-03-24T21:06:35;7.50;;;1.42;;
13801;SDS011;6972;51.518;6.918;2023-03-24T21:09:10;2.90;;;1.40;;
13801;SDS011;6972;51.518;6.918;2023-03-24T21:11:37;2.85;;;1.20;;
13801;SDS011;6972;51.518;6.918;2023-03-24T21:14:03;2.47;;;1.27;;
13801;SDS011;6972;51.518;6.918;2023-03-24T21:16:29;2.17;;;1.30;;
13801;SDS011;6972;51.518;6.918;2023-03-24T21:18:59;6.47;;;1.70;;
13801;SDS011;6972;51.518;6.918;2023-03-24T21:21:26;2.97;;;1.10;;
13801;SDS011;6972;51.518;6.918;2023-03-24T21:23:52;3.13;;;1.60;;
13801;SDS011;6972;51.518;6.918;2023-03-24T21:26:20;4.32;;;1.40;;
13801;SDS011;6972;51.518;6.918;2023-03-24T21:28:46;3.53;;;1.60;;
13801;SDS011;6972;51.518;6.918;2023-03-24T21:31:26;3.00;;;1.30;;
13801;SDS011;6972;51.518;6.918;2023-03-24T21:33:53;4.65;;;1.77;;
13801;SDS011;6972;51.518;6.918;2023-03-24T21:36:20;6.88;;;2.05;;
13801;SDS011;6972;51.518;6.918;2023-03-24T21:38:48;2.85;;;1.35;;
13801;SDS011;6972;51.518;6.918;2023-03-24T21:41:16;3.58;;;1.65;;
13801;SDS011;6972;51.518;6.918;2023-03-24T21:43:43;2.65;;;1.67;;
13801;SDS011;6972;51.518;6.918;2023-03-24T21:51:27;3.55;;;1.70;;
13801;SDS011;6972;51.518;6.918;2023-03-24T21:53:59;4.43;;;1.60;;
13801;SDS011;6972;51.518;6.918;2023-03-24T21:56:33;4.28;;;1.58;;
13801;SDS011;6972;51.518;6.918;2023-03-24T22:04:10;6.25;;;1.70;;
13801;SDS011;6972;51.518;6.918;2023-03-24T22:06:44;3.00;;;1.50;;